Time;durP1;ratioP1;P1;durP2;ratioP2;P2;SDS_P1;SDS_P2;PMS_P1;PMS_P2;Temp;Humidity;BMP_temperature;BMP_pressure;BME280_temperature;BME280_humidity;BME280_pressure;Samples;Min_cycle;Max_cycle;Signal;HPM_P1;HPM_P2
2024/01/11 00:00:29;;;;;;;11.80;3.50;;;;;;;10.46;97.78;100813.59;10384647;28;96847;-81
2024/01/11 00:05:33;;;;;;;10.60;4.20;;;;;;;10.38;97.71;100810.34;10368511;28;97235;-81
2024/01/11 00:10:36;;;;;;;6.70;3.15;;;;;;;10.34;97.91;100816.59;10342277;28;96853;-81
2024/01/11 00:15:41;;;;;;;6.78;3.55;;;;;;;10.20;97.88;100818.78;10340832;28;96837;-81
2024/01/11 00:20:45;;;;;;;;;;;;;;;10.11;96.85;100813.78;10342730;28;96750;-80
2024/01/11 00:25:48;;;;;;;8.43;3.72;;;;;;;9.99;97.33;100815.00;10341646;28;96989;-81
2024/01/11 00:30:53;;;;;;;6.70;3.90;;;;;;;9.95;97.66;100828.28;10341578;28;97149;-81
2024/01/11 00:35:56;;;;;;;11.10;3.88;;;;;;;10.00;96.96;100818.50;10341981;28;97189;-81
2024/01/11 00:41:00;;;;;;;11.20;4.88;;;;;;;10.00;97.40;100824.59;10341497;28;96736;-81
2024/01/11 00:46:05;;;;;;;5.55;3.30;;;;;;;10.01;97.02;100825.47;10341589;28;96598;-81
2024/01/11 00:51:08;;;;;;;;;;;;;;;10.06;96.99;100824.44;10342923;28;96821;-81
2024/01/11 00:56:17;;;;;;;8.15;3.78;;;;;;;10.06;96.66;100837.59;10359191;28;97303;-81
2024/01/11 01:01:22;;;;;;;6.30;3.28;;;;;;;10.10;97.38;100833.97;10366998;28;96769;-81
2024/01/11 01:06:25;;;;;;;5.25;2.97;;;;;;;10.18;96.86;100836.38;10333117;28;96888;-81
2024/01/11 01:11:28;;;;;;;4.93;2.85;;;;;;;10.16;96.53;100835.53;10316121;28;96901;-81
2024/01/11 01:16:33;;;;;;;5.47;3.00;;;;;;;10.06;96.84;100842.84;10292377;28;97721;-81
2024/01/11 01:21:37;;;;;;;9.85;3.45;;;;;;;9.97;97.89;100842.22;10328038;28;97523;-80
2024/01/11 01:26:42;;;;;;;14.65;3.00;;;;;;;9.88;97.79;100834.63;10333700;28;96701;-80
2024/01/11 01:31:47;;;;;;;5.30;3.10;;;;;;;9.89;97.92;100831.94;10334279;28;97183;-80
2024/01/11 01:36:50;;;;;;;7.18;3.78;;;;;;;9.77;98.47;100842.78;10333463;28;96821;-80
2024/01/11 01:41:53;;;;;;;10.40;4.25;;;;;;;9.70;99.01;100850.88;10334634;28;97089;-80
2024/01/11 01:46:59;;;;;;;12.27;4.50;;;;;;;9.73;98.93;100845.53;10332595;28;97302;-80
2024/01/11 01:52:03;;;;;;;9.50;4.47;;;;;;;9.73;99.75;100848.16;10333166;28;97096;-80
2024/01/11 01:57:08;;;;;;;8.75;4.45;;;;;;;9.75;99.77;100852.47;10332003;28;97357;-80
2024/01/11 02:02:13;;;;;;;9.27;4.35;;;;;;;9.74;100.00;100845.50;10332640;28;97371;-80
2024/01/11 02:07:17;;;;;;;8.68;4.93;;;;;;;9.74;100.00;100848.13;10330811;28;96689;-80
2024/01/11 02:12:21;;;;;;;9.25;4.60;;;;;;;9.78;100.00;100855.00;10331442;28;96865;-80
2024/01/11 02:17:26;;;;;;;23.73;8.18;;;;;;;9.84;99.65;100849.59;10332006;28;96612;-81
2024/01/11 02:22:30;;;;;;;;;;;;;;;9.86;99.67;100857.44;10332237;28;96768;-80
2024/01/11 02:27:47;;;;;;;9.73;4.70;;;;;;;9.92;99.99;100871.28;10331696;28;96683;-80
2024/01/11 02:32:51;;;;;;;9.43;4.20;;;;;;;10.04;100.00;100863.06;10332797;28;96748;-81
2024/01/11 02:37:59;;;;;;;12.27;4.53;;;;;;;9.99;99.60;100870.22;10331547;28;96721;-81
2024/01/11 02:43:10;;;;;;;16.23;4.47;;;;;;;9.93;100.00;100873.03;10331069;28;96736;-80
2024/01/11 02:48:14;;;;;;;9.63;4.80;;;;;;;10.03;99.47;100876.25;10329833;28;96859;-80
2024/01/11 02:53:17;;;;;;;10.18;4.90;;;;;;;10.06;99.35;100873.53;10366067;28;97273;-80
2024/01/11 02:58:22;;;;;;;10.43;4.75;;;;;;;10.03;99.70;100876.25;10372207;28;96757;-80
2024/01/11 03:03:28;;;;;;;9.55;4.38;;;;;;;9.95;98.98;100879.06;10337783;28;97358;-80
2024/01/11 03:08:31;;;;;;;7.55;4.43;;;;;;;9.90;98.77;100875.72;10330221;28;97442;-80
2024/01/11 03:13:36;;;;;;;7.80;3.47;;;;;;;9.86;98.89;100881.97;10330578;28;97709;-80
2024/01/11 03:18:40;;;;;;;8.88;3.67;;;;;;;9.76;99.10;100879.63;10329280;28;96991;-80
2024/01/11 03:23:43;;;;;;;6.72;3.47;;;;;;;9.73;98.26;100872.69;10330828;28;96675;-80
2024/01/11 03:28:49;;;;;;;6.40;3.30;;;;;;;9.66;99.05;100884.25;10330109;28;97146;-80
2024/01/11 03:33:52;;;;;;;3.65;2.47;;;;;;;9.63;99.24;100897.47;10329790;28;96685;-80
2024/01/11 03:38:56;;;;;;;7.18;2.60;;;;;;;9.57;98.05;100897.59;10328910;28;96621;-80
2024/01/11 03:44:01;;;;;;;4.50;2.83;;;;;;;9.55;97.38;100891.56;10329058;28;96809;-79
2024/01/11 03:49:04;;;;;;;5.78;2.47;;;;;;;9.54;96.95;100897.69;10345793;28;96763;-80
2024/01/11 03:54:09;;;;;;;4.80;2.90;;;;;;;9.54;97.16;100895.06;10338795;28;96978;-80
2024/01/11 03:59:14;;;;;;;5.88;2.72;;;;;;;9.43;97.87;100898.88;10329407;28;97414;-80
2024/01/11 04:04:17;;;;;;;5.78;2.80;;;;;;;9.46;97.06;100896.16;10329217;28;96940;-80
2024/01/11 04:09:21;;;;;;;5.00;2.30;;;;;;;9.35;96.12;100896.44;10304119;28;96671;-80
2024/01/11 04:14:26;;;;;;;4.35;2.38;;;;;;;9.37;96.20;100891.13;10329310;28;96699;-80
2024/01/11 04:19:29;;;;;;;4.28;2.95;;;;;;;9.28;94.90;100899.25;10328437;28;96813;-80
2024/01/11 04:24:33;;;;;;;4.60;2.42;;;;;;;9.25;94.63;100904.56;10328521;28;97486;-81
2024/01/11 04:29:38;;;;;;;6.78;2.70;;;;;;;9.20;95.10;100909.03;10329416;28;97122;-81
2024/01/11 04:34:41;;;;;;;4.15;2.78;;;;;;;9.14;95.47;100896.91;10335596;28;96786;-81
2024/01/11 04:39:44;;;;;;;5.13;2.53;;;;;;;9.09;95.71;100904.91;10335173;28;96699;-81
2024/01/11 04:44:49;;;;;;;3.85;2.35;;;;;;;8.97;95.18;100905.19;10348619;28;97439;-80
2024/01/11 04:49:53;;;;;;;3.35;1.73;;;;;;;8.89;94.98;100901.00;10352857;28;99306;-80
2024/01/11 04:54:56;;;;;;;6.30;2.13;;;;;;;8.87;95.13;100901.03;10335477;28;97286;-81
2024/01/11 05:00:01;;;;;;;3.90;2.38;;;;;;;8.83;94.80;100895.88;10333993;28;97314;-81
2024/01/11 05:05:06;;;;;;;3.40;2.20;;;;;;;8.78;94.82;100897.75;10334119;28;96739;-81
2024/01/11 05:10:10;;;;;;;4.13;2.67;;;;;;;8.75;95.15;100896.06;10334570;28;96529;-81
2024/01/11 05:15:15;;;;;;;3.38;1.67;;;;;;;8.68;94.65;100904.09;10333789;28;96835;-81
2024/01/11 05:20:18;;;;;;;4.10;2.28;;;;;;;8.56;94.72;100899.97;10333350;28;96694;-80
2024/01/11 05:25:22;;;;;;;3.00;1.80;;;;;;;8.49;94.39;100900.13;10333924;28;97075;-81
2024/01/11 05:30:27;;;;;;;4.15;2.25;;;;;;;8.44;94.37;100912.47;10365774;28;96785;-81
2024/01/11 05:35:33;;;;;;;4.03;1.95;;;;;;;8.45;93.28;100922.94;10347981;28;96733;-80
2024/01/11 05:40:36;;;;;;;3.53;1.67;;;;;;;8.32;92.96;100923.22;10332695;28;97284;-80
2024/01/11 05:45:41;;;;;;;2.80;1.55;;;;;;;8.34;91.50;100924.91;10373475;22;96765;-80
2024/01/11 05:50:50;;;;;;;3.25;1.70;;;;;;;8.30;91.49;100920.63;10365457;28;96765;-80
2024/01/11 05:55:53;;;;;;;3.95;1.92;;;;;;;8.27;91.81;100925.06;10333969;28;97228;-80
2024/01/11 06:00:59;;;;;;;2.63;1.67;;;;;;;8.16;91.14;100927.91;10332800;28;96669;-80
2024/01/11 06:06:03;;;;;;;1.95;1.75;;;;;;;8.16;91.51;100927.03;10332471;28;96728;-80
2024/01/11 06:11:07;;;;;;;3.17;1.97;;;;;;;8.09;91.29;100923.66;10370496;28;96720;-80
2024/01/11 06:16:12;;;;;;;3.78;1.98;;;;;;;8.07;91.19;100927.19;10372558;28;96924;-80
2024/01/11 06:21:17;;;;;;;3.85;2.13;;;;;;;8.01;91.08;100920.34;10373385;28;96639;-80
2024/01/11 06:26:20;;;;;;;2.67;1.98;;;;;;;8.01;91.04;100928.19;10372411;28;97344;-81
2024/01/11 06:31:25;;;;;;;3.40;1.83;;;;;;;7.99;90.86;100940.47;10373570;28;96653;-80
2024/01/11 06:36:29;;;;;;;;;;;;;;;7.88;90.15;100945.88;10373352;28;96643;-80
2024/01/11 06:41:32;;;;;;;3.00;1.75;;;;;;;7.83;90.29;100954.72;10371078;28;97111;-80
2024/01/11 06:46:39;;;;;;;3.08;1.90;;;;;;;7.79;90.13;100966.13;10331446;28;96822;-80
2024/01/11 06:51:42;;;;;;;2.58;1.70;;;;;;;7.80;88.33;100983.59;10330389;28;96560;-80
2024/01/11 06:56:45;;;;;;;2.38;1.80;;;;;;;7.81;88.65;100988.78;10331000;28;96632;-80
2024/01/11 07:01:50;;;;;;;2.75;1.80;;;;;;;7.71;88.92;100996.84;10330318;28;96662;-80
2024/01/11 07:06:54;;;;;;;3.95;1.80;;;;;;;7.67;87.46;101005.63;10330559;28;97344;-79
2024/01/11 07:11:57;;;;;;;2.80;1.75;;;;;;;7.58;87.88;101001.41;10330283;28;96705;-80
2024/01/11 07:17:02;;;;;;;2.42;1.70;;;;;;;7.47;87.97;100999.84;10330490;28;97314;-80
2024/01/11 07:22:07;;;;;;;2.63;1.92;;;;;;;7.43;87.66;100999.03;10329249;28;96767;-79
2024/01/11 07:27:10;;;;;;;3.08;1.92;;;;;;;7.41;87.33;101005.16;10330076;28;96838;-80
2024/01/11 07:32:15;;;;;;;2.35;1.48;;;;;;;7.39;87.10;101017.44;10359056;28;96830;-80
2024/01/11 07:37:19;;;;;;;2.67;1.50;;;;;;;7.38;86.56;101020.91;10331354;28;97242;-79
2024/01/11 07:42:22;;;;;;;3.17;1.65;;;;;;;7.45;85.89;101026.06;10395631;28;96719;-80
2024/01/11 07:47:27;;;;;;;2.90;1.70;;;;;;;7.44;85.85;101028.69;10411618;28;96743;-80
2024/01/11 07:52:30;;;;;;;3.67;1.23;;;;;;;7.41;85.32;101029.59;10341919;28;96617;-80
2024/01/11 07:57:34;;;;;;;2.30;1.50;;;;;;;7.45;84.85;101043.50;10329270;28;97255;-80
2024/01/11 08:02:39;;;;;;;4.20;2.42;;;;;;;7.42;84.74;101046.19;10329048;28;96693;-80
2024/01/11 08:07:43;;;;;;;2.75;1.70;;;;;;;7.39;84.44;101047.06;10336220;28;97420;-80
2024/01/11 08:12:46;;;;;;;2.28;1.80;;;;;;;7.39;84.22;101056.69;10336316;28;97228;-80
2024/01/11 08:17:51;;;;;;;2.95;1.67;;;;;;;7.37;84.73;101054.06;10336164;28;97088;-79
2024/01/11 08:22:56;;;;;;;2.75;1.75;;;;;;;7.39;83.73;101051.47;10336381;28;96799;-79
2024/01/11 08:28:00;;;;;;;2.15;1.33;;;;;;;7.33;83.95;101056.75;10347325;28;96523;-79
2024/01/11 08:33:05;;;;;;;3.80;1.80;;;;;;;7.35;83.18;101060.25;10376926;28;96945;-79
2024/01/11 08:38:09;;;;;;;2.78;1.50;;;;;;;7.30;83.40;101069.91;10376461;28;96677;-79
2024/01/11 08:43:13;;;;;;;2.47;1.50;;;;;;;7.32;83.52;101082.06;10343914;28;97528;-79
2024/01/11 08:48:17;;;;;;;1.85;1.48;;;;;;;7.32;83.58;101084.69;10334350;28;97043;-80
2024/01/11 08:53:21;;;;;;;2.20;1.67;;;;;;;7.36;82.54;101107.34;10335051;28;97302;-80
2024/01/11 08:58:25;;;;;;;2.78;1.70;;;;;;;7.58;82.11;101102.69;10335116;28;96652;-79
2024/01/11 09:03:29;;;;;;;2.90;1.50;;;;;;;7.74;80.15;101106.78;10334287;28;98082;-79
2024/01/11 09:08:33;;;;;;;2.47;1.73;;;;;;;7.91;79.63;101110.91;10334245;28;97245;-79
2024/01/11 09:13:37;;;;;;;3.42;2.03;;;;;;;8.07;79.30;101118.53;10335108;28;96883;-79
2024/01/11 09:18:42;;;;;;;3.17;1.60;;;;;;;8.13;78.31;101102.72;10334340;28;96582;-79
2024/01/11 09:23:47;;;;;;;4.03;1.63;;;;;;;8.22;78.58;101111.28;10333783;28;96676;-79
2024/01/11 09:28:51;;;;;;;2.50;1.60;;;;;;;8.34;78.09;101129.44;10362988;28;97241;-79
2024/01/11 09:33:57;;;;;;;3.58;1.80;;;;;;;8.34;76.93;101129.44;10351570;28;96686;-79
2024/01/11 09:39:00;;;;;;;2.53;1.80;;;;;;;8.43;76.73;101152.88;10374681;28;96657;-79
2024/01/11 09:44:06;;;;;;;2.47;1.77;;;;;;;8.49;77.25;101147.53;10374147;28;96671;-79
2024/01/11 09:49:13;;;;;;;2.67;1.70;;;;;;;8.50;76.63;101153.63;10373906;28;96685;-79
2024/01/11 09:54:17;;;;;;;2.38;1.70;;;;;;;8.56;76.12;101164.91;10374343;28;96774;-79
2024/01/11 09:59:22;;;;;;;4.22;1.90;;;;;;;8.59;75.85;101154.34;10374141;28;96730;-79
2024/01/11 10:04:27;;;;;;;3.80;2.17;;;;;;;8.49;75.29;101180.78;10373347;28;96691;-79
2024/01/11 10:09:30;;;;;;;3.15;1.90;;;;;;;8.55;75.38;101186.78;10332902;28;97134;-79
2024/01/11 10:14:34;;;;;;;4.28;2.72;;;;;;;8.46;75.85;101188.69;10332269;28;97254;-79
2024/01/11 10:19:39;;;;;;;3.22;2.00;;;;;;;8.48;75.02;101184.31;10332232;28;96996;-79
2024/01/11 10:24:42;;;;;;;3.15;1.83;;;;;;;8.43;74.65;101191.38;10330925;28;96532;-79
2024/01/11 10:29:46;;;;;;;2.75;1.80;;;;;;;8.44;73.30;101193.09;10353466;28;96711;-79
2024/01/11 10:34:51;;;;;;;2.22;1.85;;;;;;;8.33;72.92;101187.13;10380772;28;96822;-79
2024/01/11 10:39:58;;;;;;;2.75;1.58;;;;;;;8.32;72.09;101193.28;10364573;28;96702;-79
2024/01/11 10:45:05;;;;;;;3.13;1.60;;;;;;;8.39;71.40;101200.19;10372547;28;97211;-79
2024/01/11 10:50:11;;;;;;;2.00;1.23;;;;;;;8.49;71.29;101192.13;10372258;28;96697;-79
2024/01/11 10:55:15;;;;;;;2.83;1.80;;;;;;;8.57;71.83;101186.75;10372491;28;96969;-79
2024/01/11 11:00:20;;;;;;;3.08;1.80;;;;;;;8.62;70.85;101185.78;10331530;28;96719;-79
2024/01/11 11:05:29;;;;;;;2.15;1.60;;;;;;;8.77;71.43;101188.16;10330355;28;96935;-79
2024/01/11 11:10:35;;;;;;;2.63;1.63;;;;;;;8.74;70.58;101185.56;10329617;28;96620;-79
2024/01/11 11:15:40;;;;;;;3.00;2.08;;;;;;;8.79;70.17;101175.00;10328985;28;96937;-79
2024/01/11 11:20:45;;;;;;;2.97;1.92;;;;;;;8.88;70.73;101159.94;10351426;28;97259;-78
2024/01/11 11:25:50;;;;;;;2.90;2.08;;;;;;;8.91;70.12;101157.25;10371181;28;97321;-79
2024/01/11 11:30:55;;;;;;;4.53;2.17;;;;;;;9.00;70.38;101146.59;10358944;28;96662;-79
2024/01/11 11:36:01;;;;;;;3.10;2.10;;;;;;;9.03;69.89;101148.31;10329475;28;96777;-79
2024/01/11 11:41:04;;;;;;;3.45;1.92;;;;;;;9.08;69.19;101131.59;10343657;28;96935;-79
2024/01/11 11:46:09;;;;;;;2.92;1.92;;;;;;;9.24;69.76;101132.19;10370259;28;100361;-79
2024/01/11 11:51:16;;;;;;;2.97;1.63;;;;;;;9.22;68.75;101122.56;10330981;28;97277;-79
2024/01/11 11:56:23;;;;;;;4.22;1.67;;;;;;;9.22;68.40;101123.44;10328884;28;96603;-79
2024/01/11 12:01:27;;;;;;;3.65;1.88;;;;;;;9.40;68.16;101117.81;10328957;28;96964;-79
2024/01/11 12:06:33;;;;;;;2.75;1.77;;;;;;;9.27;66.93;101115.47;10328310;28;97090;-78
2024/01/11 12:11:37;;;;;;;2.15;1.52;;;;;;;9.25;67.43;101110.25;10328723;28;96644;-79
2024/01/11 12:16:41;;;;;;;3.30;1.65;;;;;;;9.41;68.47;101098.53;10333113;28;97603;-79
2024/01/11 12:21:46;;;;;;;2.38;1.48;;;;;;;9.38;67.39;101095.97;10358758;28;96677;-79
2024/01/11 12:26:50;;;;;;;3.63;1.73;;;;;;;9.44;66.89;101066.06;10350575;28;97271;-79
2024/01/11 12:31:58;;;;;;;3.15;1.60;;;;;;;9.47;67.43;101064.25;10370019;28;96944;-79
2024/01/11 12:37:05;;;;;;;11.65;5.57;;;;;;;9.36;66.97;101068.00;10369574;28;96624;-79
2024/01/11 12:42:09;;;;;;;7.03;4.00;;;;;;;9.53;66.33;101051.00;10354024;28;98125;-79
2024/01/11 12:47:13;;;;;;;10.90;4.47;;;;;;;9.74;66.20;101053.13;10368599;28;96910;-78
2024/01/11 12:52:19;;;;;;;6.40;3.35;;;;;;;9.68;66.76;101039.25;10373558;28;96745;-79
2024/01/11 12:57:23;;;;;;;7.43;3.28;;;;;;;9.74;66.30;101026.84;10374727;28;96753;-79
2024/01/11 13:02:26;;;;;;;17.98;7.05;;;;;;;9.79;65.50;101016.22;10376034;28;96600;-78
2024/01/11 13:07:31;;;;;;;14.45;7.18;;;;;;;9.79;66.21;101008.31;10375670;28;96661;-79
2024/01/11 13:12:35;;;;;;;12.75;5.30;;;;;;;9.99;65.32;101006.06;10365209;28;97154;-79
2024/01/11 13:17:39;;;;;;;5.38;2.22;;;;;;;10.02;65.65;101006.84;10357230;28;97732;-78
2024/01/11 13:22:44;;;;;;;4.63;2.00;;;;;;;10.06;65.68;100992.72;10374729;28;96734;-79
2024/01/11 13:27:48;;;;;;;7.28;3.55;;;;;;;10.06;65.31;100990.09;10374886;28;96624;-79
2024/01/11 13:32:52;;;;;;;7.93;3.70;;;;;;;10.79;63.07;100994.22;10371494;28;97511;-79
2024/01/11 13:37:57;;;;;;;6.30;3.67;;;;;;;11.67;59.74;100975.69;10374645;28;97208;-79
2024/01/11 13:43:02;;;;;;;2.97;2.20;;;;;;;12.40;57.74;100978.44;10344144;28;97613;-79
2024/01/11 13:48:06;;;;;;;4.47;2.43;;;;;;;13.00;56.39;100967.41;10331544;28;96843;-79
2024/01/11 13:53:11;;;;;;;4.32;2.55;;;;;;;12.39;57.39;100976.69;10333096;28;96808;-79
2024/01/11 13:58:15;;;;;;;20.42;8.65;;;;;;;12.19;56.68;100970.41;10332558;28;96758;-79
2024/01/11 14:03:19;;;;;;;19.75;9.40;;;;;;;11.65;59.00;100969.66;10332966;28;97575;-79
2024/01/11 14:08:24;;;;;;;8.73;4.60;;;;;;;11.25;59.79;100970.06;10332391;28;96712;-79
2024/01/11 14:13:28;;;;;;;4.18;2.13;;;;;;;11.01;60.04;100955.81;10334930;28;96587;-79
2024/01/11 14:18:31;;;;;;;7.43;3.33;;;;;;;10.94;60.58;100956.91;10373703;28;97015;-79
2024/01/11 14:23:37;;;;;;;5.55;2.83;;;;;;;10.82;60.48;100957.25;10341187;28;97321;-79
2024/01/11 14:28:42;;;;;;;5.18;3.08;;;;;;;10.79;60.40;100962.63;10373093;28;96691;-80
2024/01/11 14:33:46;;;;;;;6.95;2.85;;;;;;;10.75;60.71;100944.34;10372645;28;96651;-79
2024/01/11 14:38:51;;;;;;;14.32;5.35;;;;;;;10.77;61.01;100943.38;10351509;28;97188;-79
2024/01/11 14:43:55;;;;;;;4.63;2.67;;;;;;;10.81;61.13;100944.16;10369107;28;96957;-79
2024/01/11 14:49:00;;;;;;;9.05;3.42;;;;;;;10.81;61.60;100947.66;10371567;28;97061;-79
2024/01/11 14:54:05;;;;;;;;;;;;;;;10.95;61.20;100957.78;10366590;28;96739;-79
2024/01/11 14:59:09;;;;;;;8.55;3.30;;;;;;;12.32;57.82;100946.16;10330860;28;96795;-79
2024/01/11 15:04:13;;;;;;;6.47;3.23;;;;;;;13.06;55.54;100946.06;10330729;28;97457;-79
2024/01/11 15:09:18;;;;;;;4.55;2.47;;;;;;;13.42;54.49;100944.63;10330803;28;97222;-80
2024/01/11 15:14:21;;;;;;;3.25;1.80;;;;;;;14.10;53.13;100943.56;10331131;28;96759;-79
2024/01/11 15:19:25;;;;;;;3.75;1.98;;;;;;;13.88;52.22;100940.06;10345044;28;96997;-79
2024/01/11 15:24:32;;;;;;;2.70;1.70;;;;;;;14.63;51.72;100950.00;10371063;28;97083;-80
2024/01/11 15:29:36;;;;;;;2.53;1.40;;;;;;;14.54;51.36;100948.63;10369103;28;96728;-80
2024/01/11 15:34:39;;;;;;;2.40;1.50;;;;;;;14.22;51.29;100941.25;10371301;28;96836;-79
2024/01/11 15:39:44;;;;;;;3.45;1.80;;;;;;;14.15;51.37;100949.50;10371071;28;96874;-80
2024/01/11 15:44:49;;;;;;;1.80;1.30;;;;;;;13.74;51.45;100942.44;10366283;28;100937;-79
2024/01/11 15:49:53;;;;;;;2.22;1.50;;;;;;;13.79;51.06;100946.63;10329510;28;97435;-80
2024/01/11 15:54:59;;;;;;;3.60;1.97;;;;;;;13.76;51.89;100946.75;10329139;28;97585;-79
2024/01/11 16:00:04;;;;;;;3.80;1.95;;;;;;;13.37;52.66;100951.00;10329586;28;96786;-79
2024/01/11 16:05:09;;;;;;;2.88;1.90;;;;;;;12.83;53.75;100961.06;10330380;28;96643;-79
2024/01/11 16:10:14;;;;;;;3.50;2.15;;;;;;;12.76;53.85;100954.31;10336045;28;97389;-80
2024/01/11 16:15:17;;;;;;;;;;;;;;;12.57;54.11;100954.94;10370364;28;97257;-80
2024/01/11 16:20:21;;;;;;;3.33;2.03;;;;;;;12.42;54.28;100955.50;10352726;28;96784;-79
2024/01/11 16:25:26;;;;;;;4.07;2.00;;;;;;;11.98;56.14;100964.09;10330409;28;96678;-79
2024/01/11 16:30:30;;;;;;;2.97;2.15;;;;;;;11.62;57.12;100970.59;10345291;28;97381;-79
2024/01/11 16:35:34;;;;;;;3.80;1.92;;;;;;;11.39;57.92;100958.16;10374661;28;96845;-79
2024/01/11 16:40:54;;;;;;;3.33;2.03;;;;;;;11.19;59.71;100963.19;10347836;28;96826;-79
2024/01/11 16:45:58;;;;;;;3.33;2.38;;;;;;;10.97;59.66;100966.50;10375626;28;97525;-79
2024/01/11 16:51:02;;;;;;;4.32;2.50;;;;;;;10.79;60.37;100960.00;10376229;28;97270;-79
2024/01/11 16:56:07;;;;;;;3.75;2.22;;;;;;;10.66;61.63;100970.91;10345579;28;96725;-79
2024/01/11 17:01:10;;;;;;;;;;;;;;;10.53;62.75;100961.63;10335278;28;96774;-79
2024/01/11 17:06:18;;;;;;;5.05;3.28;;;;;;;10.38;62.39;100955.06;10334596;28;96704;-80
2024/01/11 17:11:24;;;;;;;6.40;3.58;;;;;;;10.31;63.05;100950.84;10350704;28;97253;-79
2024/01/11 17:16:27;;;;;;;4.90;3.17;;;;;;;10.24;62.61;100947.53;10360643;28;97136;-79
2024/01/11 17:21:31;;;;;;;5.95;3.30;;;;;;;10.13;63.74;100959.22;10375524;28;96817;-79
2024/01/11 17:26:37;;;;;;;6.47;3.45;;;;;;;10.07;63.99;100948.91;10372758;28;98517;-79
2024/01/11 17:31:44;;;;;;;8.50;3.75;;;;;;;9.96;64.57;100953.56;10334102;28;96619;-79
2024/01/11 17:36:48;;;;;;;6.35;3.47;;;;;;;9.87;64.96;100957.28;10332729;28;96617;-79
2024/01/11 17:41:54;;;;;;;6.97;4.00;;;;;;;9.78;64.86;100962.78;10354332;28;96723;-79
2024/01/11 17:46:59;;;;;;;11.30;6.43;;;;;;;9.72;65.76;100967.31;10344283;28;96754;-79
2024/01/11 17:52:03;;;;;;;7.97;5.43;;;;;;;9.56;65.67;100979.97;10333073;28;96777;-79
2024/01/11 17:57:08;;;;;;;24.38;12.63;;;;;;;9.52;66.15;100977.47;10332998;28;96945;-79
2024/01/11 18:02:12;;;;;;;8.38;5.30;;;;;;;9.40;67.21;100975.13;10331593;28;97170;-79
2024/01/11 18:07:15;;;;;;;8.88;4.65;;;;;;;9.23;68.96;100982.47;10349496;28;97378;-79
2024/01/11 18:12:21;;;;;;;9.15;5.68;;;;;;;9.02;68.76;100986.44;10373256;28;97357;-79
2024/01/11 18:17:24;;;;;;;10.60;5.47;;;;;;;8.86;70.53;100992.94;10383504;22;96863;-79
2024/01/11 18:22:28;;;;;;;7.00;5.03;;;;;;;8.83;69.34;100982.47;10347150;28;96609;-79
2024/01/11 18:27:36;;;;;;;10.73;5.05;;;;;;;8.94;69.37;100997.13;10373300;28;96718;-79
2024/01/11 18:32:39;;;;;;;9.48;5.07;;;;;;;8.89;70.05;100996.34;10373123;28;96711;-79
2024/01/11 18:37:43;;;;;;;9.10;5.38;;;;;;;8.78;69.88;101003.56;10373179;28;97334;-79
2024/01/11 18:42:48;;;;;;;9.88;5.45;;;;;;;8.72;70.27;101003.69;10373102;28;96733;-79
2024/01/11 18:47:51;;;;;;;10.40;5.50;;;;;;;8.69;70.94;101013.38;10371406;28;96877;-79
2024/01/11 18:52:55;;;;;;;14.63;6.60;;;;;;;8.56;71.19;101018.03;10371524;28;96688;-79
2024/01/11 18:58:00;;;;;;;7.60;4.40;;;;;;;8.57;71.02;101024.97;10372142;28;96793;-79
2024/01/11 19:03:07;;;;;;;13.88;7.80;;;;;;;8.54;70.83;101025.06;10372216;28;96713;-79
2024/01/11 19:08:13;;;;;;;13.75;5.75;;;;;;;8.33;71.89;101029.81;10371992;28;96772;-79
2024/01/11 19:13:18;;;;;;;14.30;8.03;;;;;;;8.32;71.13;101028.97;10371607;28;97275;-79
2024/01/11 19:18:22;;;;;;;11.63;5.53;;;;;;;8.23;72.75;101042.25;10371586;28;96623;-79
2024/01/11 19:23:26;;;;;;;11.30;5.97;;;;;;;8.16;72.92;101048.47;10371648;28;96663;-79
2024/01/11 19:28:31;;;;;;;10.00;5.33;;;;;;;7.94;73.93;101039.25;10371784;28;96730;-79
2024/01/11 19:33:36;;;;;;;8.43;4.50;;;;;;;8.05;73.59;101046.94;10370822;28;96769;-80
2024/01/11 19:38:40;;;;;;;7.75;4.70;;;;;;;8.04;74.01;101061.78;10370959;28;96901;-79
2024/01/11 19:43:45;;;;;;;9.95;4.18;;;;;;;7.89;74.93;101047.16;10370255;28;96844;-79
2024/01/11 19:48:49;;;;;;;8.88;4.07;;;;;;;7.86;75.13;101052.47;10370221;28;98386;-79
2024/01/11 19:53:53;;;;;;;7.63;4.45;;;;;;;7.74;75.34;101057.91;10370869;28;96634;-79
2024/01/11 19:58:59;;;;;;;7.63;4.03;;;;;;;7.71;75.86;101068.44;10371744;28;96865;-79
2024/01/11 20:04:03;;;;;;;8.70;5.13;;;;;;;7.42;77.97;101056.66;10377878;28;96640;-79
2024/01/11 20:09:07;;;;;;;8.43;4.60;;;;;;;7.42;77.78;101060.13;10377580;28;97354;-79
2024/01/11 20:14:12;;;;;;;8.88;4.20;;;;;;;7.37;77.53;101071.56;10377410;28;96793;-79
2024/01/11 20:19:16;;;;;;;6.13;4.13;;;;;;;7.30;78.67;101068.16;10377991;28;96824;-79
2024/01/11 20:24:19;;;;;;;7.95;4.50;;;;;;;7.38;77.83;101066.28;10377650;28;97216;-79
2024/01/11 20:29:26;;;;;;;9.07;4.85;;;;;;;7.27;78.33;101062.94;10377232;28;97212;-79
2024/01/11 20:34:30;;;;;;;11.65;5.53;;;;;;;7.11;79.10;101073.66;10375831;28;97030;-79
2024/01/11 20:39:33;;;;;;;8.43;4.57;;;;;;;7.36;78.04;101065.44;10376764;28;96906;-79
2024/01/11 20:44:39;;;;;;;8.88;4.55;;;;;;;7.52;76.80;101082.69;10376535;28;96900;-79
2024/01/11 20:49:43;;;;;;;9.02;4.38;;;;;;;7.70;75.85;101086.78;10376445;28;96609;-79
2024/01/11 20:54:46;;;;;;;9.13;4.40;;;;;;;7.75;74.39;101077.97;10376239;28;97321;-79
2024/01/11 20:59:54;;;;;;;7.85;4.32;;;;;;;7.83;74.38;101085.72;10376583;28;96627;-79
2024/01/11 21:04:57;;;;;;;7.63;4.10;;;;;;;7.62;75.35;101086.91;10376119;28;96630;-79
2024/01/11 21:10:01;;;;;;;7.35;4.78;;;;;;;7.74;74.48;101093.69;10357025;28;97339;-79
2024/01/11 21:15:07;;;;;;;5.75;3.67;;;;;;;7.78;74.10;101083.16;10375608;28;96640;-79
2024/01/11 21:20:11;;;;;;;7.15;3.72;;;;;;;7.79;74.19;101070.91;10375564;28;97396;-79
2024/01/11 21:25:15;;;;;;;8.88;4.90;;;;;;;7.82;73.89;101087.44;10374186;28;96722;-79
2024/01/11 21:30:20;;;;;;;7.55;4.22;;;;;;;7.82;73.43;101092.69;10375088;28;96742;-79
2024/01/11 21:35:24;;;;;;;6.15;3.47;;;;;;;7.77;73.79;101091.06;10374669;28;96616;-79
2024/01/11 21:40:28;;;;;;;5.55;3.67;;;;;;;7.89;72.26;101096.97;10374911;28;96689;-79
2024/01/11 21:45:33;;;;;;;6.93;3.83;;;;;;;7.86;72.62;101093.50;10374851;28;97486;-79
2024/01/11 21:50:37;;;;;;;7.18;4.13;;;;;;;7.92;71.30;101091.69;10374122;28;96661;-79
2024/01/11 21:55:41;;;;;;;7.07;4.03;;;;;;;7.87;72.18;101093.47;10373737;28;97404;-79
2024/01/11 22:00:46;;;;;;;6.68;3.75;;;;;;;7.87;71.78;101101.34;10375143;28;96568;-79
2024/01/11 22:05:49;;;;;;;;;;;;;;;7.81;71.58;101098.84;10374025;28;97203;-79
2024/01/11 22:10:54;;;;;;;6.47;4.03;;;;;;;7.80;71.51;101091.84;10374221;28;96709;-79
2024/01/11 22:16:01;;;;;;;7.32;4.30;;;;;;;7.77;71.26;101109.41;10372109;28;96928;-79
2024/01/11 22:21:05;;;;;;;7.95;3.60;;;;;;;7.79;71.50;101123.31;10373727;28;96632;-79
2024/01/11 22:26:09;;;;;;;5.73;3.23;;;;;;;7.74;71.87;101115.53;10373292;28;96590;-79
2024/01/11 22:31:14;;;;;;;3.45;2.67;;;;;;;7.69;71.03;101121.72;10372922;28;96701;-79
2024/01/11 22:36:18;;;;;;;5.55;2.88;;;;;;;7.78;69.96;101111.13;10373295;28;97225;-79
2024/01/11 22:41:22;;;;;;;4.80;3.30;;;;;;;7.76;70.70;101115.50;10373740;28;97104;-79
2024/01/11 22:46:27;;;;;;;5.80;3.40;;;;;;;7.74;69.59;101128.63;10372437;28;97072;-79
2024/01/11 22:51:31;;;;;;;4.18;2.83;;;;;;;7.78;69.15;101134.69;10373385;28;97569;-79
2024/01/11 22:56:35;;;;;;;5.32;3.28;;;;;;;7.70;69.19;101129.56;10372429;28;97275;-79
2024/01/11 23:01:43;;;;;;;4.97;2.92;;;;;;;7.74;69.46;101122.50;10372375;28;96642;-79
2024/01/11 23:06:46;;;;;;;4.53;3.00;;;;;;;7.75;68.63;101125.09;10371447;28;96973;-79
2024/01/11 23:11:50;;;;;;;4.05;2.50;;;;;;;7.65;69.25;101125.25;10371896;28;96643;-79
2024/01/11 23:16:55;;;;;;;4.60;3.05;;;;;;;7.69;68.69;101113.84;10371027;28;99479;-79
2024/01/11 23:21:58;;;;;;;4.70;2.70;;;;;;;7.72;68.26;101114.69;10371764;28;96977;-79
2024/01/11 23:27:02;;;;;;;3.70;2.63;;;;;;;7.71;68.00;101119.94;10371288;28;96741;-79
2024/01/11 23:32:07;;;;;;;4.93;2.83;;;;;;;7.64;68.21;101113.06;10371503;28;97262;-79